Portada
METAR-TAF:

METAR-TAF

Aeroports :

Aeroport de Milà-Linate

Milà, Itàlia

latitud: 45-26N, longitud: 009-17E, altitud: 107 m

Observació

L'informe es va fer fa 34 minuts, a les 16:20 UTC
Vent 4 kt del Sud/Sud-Oest
Temperatura 7°C
Humitat 81%
Pressió 1019 hPa
Visibilitat 10 km o més
sense núvols per sota de 1500 mi sense presència de cumulonimbus.

METAR: LIML 071620Z 20004KT CAVOK 07/04 Q1019 NOSIG

Hora: 17:54 (16:54 UTC)

Pronòstic

L'informe es va fer fa 5 hores i 54 minuts, a les 11:00 UTC
Pronòstic vàlid del 07 a les 12 UTC al 08 a les 12 UTC
Vent 5 kt amb direcció variable
Visibilitat 10 km o més
sense núvols per sota de 1500 mi sense presència de cumulonimbus.

TAF: LIML 071100Z 0712/0812 VRB05KT CAVOK

Observacions i pronòstics meteorològics de més de 4000 aeroports (METAR i TAF).

Les estacions disponibles són els punts grocs i vermells al mapa.

Posi el ratolí al punt desitjat per veure el nom de l'estació.

Feu clic per veure les observacions i els pronòstics meteorològics.

Per canviar el mapa: feu clic els botons verds amb una creu de color negre per apropar; al botó verd amb un guió per allunyar la imatge; o en les fletxes verdes per a mapes adjacents.


METAR-TAF: